createdAt,value
2022-08-19T00:02:31.482Z,67.04
2022-08-19T00:05:51.885Z,66.97
2022-08-19T00:09:05.525Z,66.46
2022-08-19T00:12:20.218Z,67.37
2022-08-19T00:19:07.619Z,66.96
2022-08-19T00:22:19.044Z,67.18
2022-08-19T00:26:01.155Z,67.26
2022-08-19T00:29:28.215Z,66.75
2022-08-19T00:32:35.770Z,66.84
2022-08-19T00:36:12.722Z,67.08
2022-08-19T00:40:03.435Z,67.03
2022-08-19T00:43:32.522Z,67.42
2022-08-19T00:46:58.214Z,67.41
2022-08-19T00:50:06.765Z,67.49
2022-08-19T00:53:27.330Z,67.37
2022-08-19T01:00:17.490Z,67.53
2022-08-19T01:03:57.334Z,67.64
2022-08-19T01:07:22.648Z,67.71
2022-08-19T01:10:42.972Z,67.94
2022-08-19T01:14:05.757Z,68.22
2022-08-19T01:21:14.481Z,68.31
2022-08-19T01:24:46.666Z,68.33
2022-08-19T01:28:39.739Z,68.75
2022-08-19T01:32:03.487Z,68.52
2022-08-19T01:35:18.674Z,68.79
2022-08-19T01:38:46.939Z,68.50
2022-08-19T01:42:08.845Z,69.08
2022-08-19T01:45:15.836Z,69.21
2022-08-19T01:48:23.135Z,68.82
2022-08-19T01:51:39.590Z,69.12
2022-08-19T01:54:50.474Z,69.14
2022-08-19T01:58:09.879Z,69.37
2022-08-19T02:01:21.527Z,69.46
2022-08-19T02:04:32.890Z,69.45
2022-08-19T02:07:44.852Z,69.59
2022-08-19T02:11:03.962Z,69.85
2022-08-19T02:14:20.022Z,69.98
2022-08-19T02:17:41.445Z,69.53
2022-08-19T02:21:07.475Z,69.95
2022-08-19T02:24:18.383Z,69.84
2022-08-19T02:27:32.400Z,69.20
2022-08-19T02:30:47.886Z,70.41
2022-08-19T02:34:00.412Z,69.69
2022-08-19T02:37:09.937Z,69.92
2022-08-19T02:40:15.904Z,70.22
2022-08-19T02:43:29.849Z,70.00
2022-08-19T02:46:43.418Z,70.30
2022-08-19T02:50:05.019Z,70.79
2022-08-19T02:53:24.565Z,70.69
2022-08-19T02:56:38.971Z,71.17
2022-08-19T02:59:49.837Z,71.35
2022-08-19T03:03:02.507Z,71.58
2022-08-19T03:06:24.216Z,71.42
2022-08-19T03:09:50.812Z,71.45
2022-08-19T03:13:05.194Z,72.34
2022-08-19T03:19:51.397Z,73.08
2022-08-19T03:23:11.793Z,73.13
2022-08-19T03:26:25.432Z,73.87
2022-08-19T03:30:11.696Z,74.32
2022-08-19T03:33:28.737Z,73.36
2022-08-19T03:36:44.097Z,73.94
2022-08-19T03:39:53.848Z,74.17
2022-08-19T03:43:16.801Z,74.32
2022-08-19T03:46:27.738Z,74.96
2022-08-19T03:49:57.881Z,74.67
2022-08-19T03:53:09.564Z,75.12
2022-08-19T03:56:21.236Z,74.84
2022-08-19T03:59:42.909Z,74.37
2022-08-19T04:03:00.543Z,74.72
2022-08-19T04:06:22.073Z,74.49
2022-08-19T04:09:45.287Z,74.35
2022-08-19T04:12:53.937Z,74.56
2022-08-19T04:16:10.210Z,74.05
2022-08-19T04:19:22.430Z,74.61
2022-08-19T04:22:32.268Z,74.47
2022-08-19T04:25:51.445Z,74.75
2022-08-19T04:29:12.825Z,74.47
2022-08-19T04:32:25.446Z,74.12
2022-08-19T04:35:43.292Z,74.16
2022-08-19T04:39:02.275Z,74.20
2022-08-19T04:42:31.790Z,74.53
2022-08-19T04:45:43.971Z,74.77
2022-08-19T04:49:10.401Z,74.42
2022-08-19T04:52:24.895Z,74.26
2022-08-19T04:55:44.999Z,74.10
2022-08-19T04:59:05.791Z,73.84
2022-08-19T05:02:17.464Z,73.67
2022-08-19T05:05:44.511Z,74.04
2022-08-19T05:08:52.681Z,73.96
2022-08-19T05:12:07.777Z,73.21
2022-08-19T05:15:19.928Z,73.37
2022-08-19T05:18:53.048Z,73.45
2022-08-19T05:22:21.143Z,73.85
2022-08-19T05:25:44.990Z,73.56
2022-08-19T05:29:07.434Z,73.88
2022-08-19T05:32:18.029Z,73.62
2022-08-19T05:35:34.768Z,73.96
2022-08-19T05:38:45.632Z,74.06
2022-08-19T05:42:03.372Z,74.21
2022-08-19T05:45:15.020Z,73.89
2022-08-19T05:48:28.370Z,73.63
2022-08-19T05:51:48.461Z,73.84
2022-08-19T05:55:13.059Z,73.98
2022-08-19T05:58:29.607Z,73.89
2022-08-19T06:01:33.970Z,73.96
2022-08-19T06:04:52.872Z,73.77
2022-08-19T06:08:14.050Z,73.99
2022-08-19T06:11:28.553Z,73.35
2022-08-19T06:14:49.339Z,73.38
2022-08-19T06:18:08.199Z,73.60
2022-08-19T06:21:24.800Z,73.60
2022-08-19T06:24:34.635Z,74.08
2022-08-19T06:28:04.877Z,73.12
2022-08-19T06:31:15.541Z,73.32
2022-08-19T06:34:38.203Z,72.91
2022-08-19T06:38:01.863Z,73.67
2022-08-19T06:41:11.178Z,73.64
2022-08-19T06:44:42.729Z,73.50
2022-08-19T06:48:00.478Z,73.28
2022-08-19T06:51:20.529Z,73.34
2022-08-19T06:54:56.557Z,73.55
2022-08-19T06:58:25.040Z,73.64
2022-08-19T07:01:51.898Z,74.07
2022-08-19T07:05:06.781Z,73.74
2022-08-19T07:08:18.175Z,73.28
2022-08-19T07:11:36.399Z,73.01
2022-08-19T07:14:50.374Z,73.69
2022-08-19T07:26:19.964Z,73.02
2022-08-19T07:29:46.733Z,72.59
2022-08-19T07:33:18.747Z,72.97
2022-08-19T07:36:36.262Z,72.61
2022-08-19T07:39:48.178Z,72.41
2022-08-19T07:43:03.988Z,72.69
2022-08-19T07:46:23.261Z,72.84
2022-08-19T07:49:35.655Z,72.51
2022-08-19T07:56:18.684Z,72.35
2022-08-19T07:59:26.412Z,72.90
2022-08-19T08:03:06.994Z,72.50
2022-08-19T08:06:33.109Z,72.87
2022-08-19T08:13:16.166Z,72.29
2022-08-19T08:16:35.493Z,71.98
2022-08-19T08:19:54.734Z,72.27
2022-08-19T08:23:17.351Z,72.25
2022-08-19T08:26:35.779Z,73.06
2022-08-19T08:29:47.611Z,72.54
2022-08-19T08:32:59.071Z,72.35
2022-08-19T08:36:15.574Z,72.61
2022-08-19T08:39:36.729Z,72.72
2022-08-19T08:42:50.109Z,73.55
2022-08-19T08:45:58.337Z,73.57
2022-08-19T08:49:09.746Z,72.84
2022-08-19T08:52:20.830Z,72.90
2022-08-19T08:55:27.599Z,72.90
2022-08-19T08:58:52.553Z,73.13
2022-08-19T09:01:57.432Z,73.35
2022-08-19T09:05:00.431Z,73.47
2022-08-19T09:08:13.708Z,73.58
2022-08-19T09:11:42.224Z,73.25
2022-08-19T09:14:51.752Z,72.74
2022-08-19T09:17:54.909Z,73.30
2022-08-19T09:20:58.141Z,72.66
2022-08-19T09:24:03.462Z,73.29
2022-08-19T09:27:18.191Z,72.30
2022-08-19T09:30:25.271Z,72.37
2022-08-19T09:33:28.092Z,72.12
2022-08-19T09:36:36.848Z,71.30
2022-08-19T09:39:43.782Z,71.43
2022-08-19T09:42:49.702Z,70.91
2022-08-19T09:45:54.456Z,71.06
2022-08-19T09:48:59.398Z,70.79
2022-08-19T09:52:11.882Z,70.62
2022-08-19T09:55:18.531Z,70.68
2022-08-19T09:58:24.746Z,71.37
2022-08-19T10:01:31.402Z,70.63
2022-08-19T10:04:48.093Z,70.81
2022-08-19T10:07:51.230Z,70.58
2022-08-19T10:10:56.361Z,70.84
2022-08-19T10:14:01.714Z,70.66
2022-08-19T10:17:17.919Z,71.04
2022-08-19T10:20:23.117Z,70.78
2022-08-19T10:23:25.831Z,71.45
2022-08-19T10:26:31.895Z,72.01
2022-08-19T10:29:35.310Z,71.54
2022-08-19T10:32:38.268Z,71.39
2022-08-19T10:35:56.931Z,70.39
2022-08-19T10:39:03.633Z,70.33
2022-08-19T10:42:11.519Z,69.14
2022-08-19T10:45:14.393Z,69.58
2022-08-19T10:48:19.574Z,68.83
2022-08-19T10:51:46.540Z,68.50
2022-08-19T10:55:08.896Z,68.18
2022-08-19T10:58:14.398Z,68.42
2022-08-19T11:01:17.163Z,67.85
2022-08-19T11:04:21.341Z,67.92
2022-08-19T11:07:27.495Z,68.13
2022-08-19T11:10:30.274Z,67.17
2022-08-19T11:13:38.296Z,67.62
2022-08-19T11:16:41.570Z,66.97
2022-08-19T11:19:44.259Z,66.50
2022-08-19T11:22:46.996Z,65.67
2022-08-19T11:25:51.651Z,65.42
2022-08-19T11:28:56.454Z,64.83
2022-08-19T11:31:59.198Z,64.14
2022-08-19T11:35:01.953Z,64.00
2022-08-19T11:38:09.404Z,63.63
2022-08-19T11:41:13.070Z,64.62
2022-08-19T11:44:17.319Z,63.52
2022-08-19T11:47:20.409Z,64.13
2022-08-19T11:50:24.267Z,64.69
2022-08-19T11:53:27.341Z,63.94
2022-08-19T11:56:30.584Z,63.02
2022-08-19T11:59:35.074Z,62.66
2022-08-19T12:02:37.802Z,63.38
2022-08-19T12:05:41.945Z,63.18
2022-08-19T12:08:46.501Z,63.79
2022-08-19T12:11:49.183Z,63.35
2022-08-19T12:14:57.449Z,62.36
2022-08-19T12:18:00.123Z,62.55
2022-08-19T12:21:02.821Z,62.80
2022-08-19T12:24:09.362Z,63.19
2022-08-19T12:27:12.550Z,63.22
2022-08-19T12:30:17.214Z,61.22
2022-08-19T12:33:24.829Z,61.66
2022-08-19T12:36:27.526Z,62.68
2022-08-19T12:39:31.430Z,62.62
2022-08-19T12:42:34.282Z,62.89
2022-08-19T12:45:38.610Z,62.25
2022-08-19T12:48:45.925Z,61.79
2022-08-19T12:51:48.632Z,61.05
2022-08-19T12:54:54.099Z,61.86
2022-08-19T12:57:57.629Z,61.63
2022-08-19T13:01:01.811Z,60.74
2022-08-19T13:04:05.050Z,61.02
2022-08-19T13:07:08.176Z,61.57
2022-08-19T13:10:13.273Z,62.74
2022-08-19T13:13:16.285Z,60.43
2022-08-19T13:16:22.851Z,60.08
2022-08-19T13:19:25.545Z,60.64
2022-08-19T13:22:28.321Z,60.75
2022-08-19T13:25:31.086Z,61.69
2022-08-19T13:28:48.889Z,61.91
2022-08-19T13:32:10.542Z,62.29
2022-08-19T13:35:19.133Z,62.20
2022-08-19T13:38:23.601Z,61.78
2022-08-19T13:41:26.336Z,63.42
2022-08-19T13:44:33.493Z,69.74
2022-08-19T13:47:45.575Z,73.53
2022-08-19T13:50:49.429Z,75.21
2022-08-19T13:53:53.119Z,77.96
2022-08-19T13:56:56.835Z,80.02
2022-08-19T14:00:02.087Z,80.05
2022-08-19T14:03:09.395Z,81.11
2022-08-19T14:06:13.183Z,82.11
2022-08-19T14:09:17.159Z,82.15
2022-08-19T14:12:28.377Z,82.43
2022-08-19T14:15:33.472Z,81.84
2022-08-19T14:18:40.978Z,81.57
2022-08-19T14:21:44.513Z,81.85
2022-08-19T14:24:49.234Z,81.38
2022-08-19T14:27:53.524Z,80.27
2022-08-19T14:30:57.538Z,79.54
2022-08-19T14:34:02.621Z,79.54
2022-08-19T14:37:07.126Z,79.41
2022-08-19T14:40:12.639Z,78.85
2022-08-19T14:43:16.564Z,76.77
2022-08-19T14:46:24.159Z,76.83
2022-08-19T14:49:34.891Z,76.20
2022-08-19T14:52:41.104Z,75.70
2022-08-19T14:55:46.051Z,74.46
2022-08-19T14:58:52.810Z,74.20
2022-08-19T15:01:56.459Z,74.59
2022-08-19T15:05:02.032Z,74.63
2022-08-19T15:08:06.603Z,74.30
2022-08-19T15:11:11.870Z,74.35
2022-08-19T15:14:16.378Z,73.91
2022-08-19T15:17:20.431Z,72.88
2022-08-19T15:20:26.587Z,70.14
2022-08-19T15:23:30.578Z,70.83
2022-08-19T15:26:34.212Z,70.72
2022-08-19T15:29:37.994Z,71.55
2022-08-19T15:32:44.273Z,72.08
2022-08-19T15:35:52.760Z,72.24
2022-08-19T15:38:57.659Z,71.57
2022-08-19T15:42:01.914Z,71.40
2022-08-19T15:45:06.179Z,70.37
2022-08-19T15:48:09.808Z,70.80
2022-08-19T15:51:15.402Z,70.11
2022-08-19T15:54:21.967Z,70.95
2022-08-19T15:57:44.100Z,71.39
2022-08-19T16:01:05.031Z,71.39
2022-08-19T16:04:33.934Z,71.70
2022-08-19T16:07:39.706Z,72.81
2022-08-19T16:10:43.625Z,73.02
2022-08-19T16:13:47.523Z,72.72
2022-08-19T16:16:51.278Z,72.90
2022-08-19T16:19:54.898Z,73.46
2022-08-19T16:23:03.621Z,74.15
2022-08-19T16:26:09.607Z,74.80
2022-08-19T16:29:13.913Z,75.09
2022-08-19T16:32:17.975Z,74.91
2022-08-19T16:35:21.741Z,76.01
2022-08-19T16:38:27.797Z,77.67
2022-08-19T16:41:33.039Z,78.31
2022-08-19T16:44:37.155Z,79.19
2022-08-19T16:47:41.177Z,79.21
2022-08-19T16:50:49.489Z,79.01
2022-08-19T16:53:55.540Z,79.37
2022-08-19T16:56:59.294Z,79.28
2022-08-19T17:00:08.746Z,78.99
2022-08-19T17:03:15.230Z,79.68
2022-08-19T17:06:22.817Z,80.50
2022-08-19T17:09:28.400Z,80.33
2022-08-19T17:12:37.624Z,79.98
2022-08-19T17:15:41.706Z,80.14
2022-08-19T17:18:45.600Z,80.37
2022-08-19T17:21:49.428Z,80.28
2022-08-19T17:24:57.884Z,80.69
2022-08-19T17:28:08.919Z,81.41
2022-08-19T17:31:12.561Z,82.21
2022-08-19T17:34:17.562Z,82.79
2022-08-19T17:37:21.510Z,82.87
2022-08-19T17:40:29.861Z,83.28
2022-08-19T17:43:38.936Z,83.69
2022-08-19T17:46:48.386Z,83.74
2022-08-19T17:49:52.181Z,84.38
2022-08-19T17:52:56.316Z,84.42
2022-08-19T17:56:02.316Z,84.75
2022-08-19T17:59:09.121Z,84.72
2022-08-19T18:02:21.420Z,84.86
2022-08-19T18:05:29.687Z,85.10
2022-08-19T18:08:34.063Z,84.98
2022-08-19T18:11:39.315Z,85.31
2022-08-19T18:14:43.479Z,85.49
2022-08-19T18:17:47.026Z,85.53
2022-08-19T18:20:50.782Z,85.71
2022-08-19T18:23:55.202Z,85.26
2022-08-19T18:27:07.307Z,85.50
2022-08-19T18:30:11.847Z,85.58
2022-08-19T18:33:15.634Z,85.81
2022-08-19T18:36:37.362Z,85.83
2022-08-19T18:40:00.604Z,85.68
2022-08-19T18:43:23.536Z,85.20
2022-08-19T18:46:44.397Z,84.92
2022-08-19T18:49:51.359Z,85.19
2022-08-19T18:52:55.107Z,85.24
2022-08-19T18:55:59.879Z,85.01
2022-08-19T18:59:05.126Z,84.40
2022-08-19T19:02:09.016Z,84.50
2022-08-19T19:05:14.442Z,84.52
2022-08-19T19:08:18.325Z,84.46
2022-08-19T19:11:26.245Z,84.69
2022-08-19T19:14:50.551Z,84.72
2022-08-19T19:17:54.778Z,84.72
2022-08-19T19:21:00.140Z,84.47
2022-08-19T19:24:04.701Z,84.50
2022-08-19T19:27:10.367Z,84.67
2022-08-19T19:30:16.318Z,84.65
2022-08-19T19:33:20.267Z,84.61
2022-08-19T19:36:24.837Z,85.03
2022-08-19T19:39:33.999Z,85.23
2022-08-19T19:42:52.214Z,85.70
2022-08-19T19:45:57.991Z,85.49
2022-08-19T19:49:01.785Z,85.73
2022-08-19T19:52:05.603Z,85.76
2022-08-19T19:55:18.534Z,85.68
2022-08-19T19:58:29.103Z,85.80
2022-08-19T20:01:34.594Z,85.92
2022-08-19T20:04:38.763Z,85.49
2022-08-19T20:08:00.943Z,85.29
2022-08-19T20:11:06.586Z,85.15
2022-08-19T20:14:12.720Z,85.19
2022-08-19T20:17:20.752Z,85.04
2022-08-19T20:20:25.086Z,84.91
2022-08-19T20:23:28.997Z,84.77
2022-08-19T20:26:34.046Z,84.83
2022-08-19T20:29:44.185Z,84.46
2022-08-19T20:32:50.438Z,84.28
2022-08-19T20:35:54.406Z,83.01
2022-08-19T20:38:58.131Z,80.41
2022-08-19T20:42:01.801Z,72.21
2022-08-19T20:45:18.008Z,66.26
2022-08-19T20:48:36.402Z,63.89
2022-08-19T20:51:39.353Z,60.91
2022-08-19T20:54:42.346Z,60.19
2022-08-19T20:57:46.619Z,59.87
2022-08-19T21:00:50.855Z,59.15
2022-08-19T21:03:54.983Z,59.18
2022-08-19T21:06:57.694Z,58.60
2022-08-19T21:10:00.474Z,57.78
2022-08-19T21:13:03.720Z,58.23
2022-08-19T21:16:09.017Z,58.40
2022-08-19T21:19:14.124Z,58.51
2022-08-19T21:22:16.835Z,58.14
2022-08-19T21:25:19.638Z,58.84
2022-08-19T21:28:34.632Z,58.66
2022-08-19T21:31:39.049Z,58.81
2022-08-19T21:34:46.575Z,59.17
2022-08-19T21:37:49.318Z,59.90
2022-08-19T21:40:52.097Z,60.71
2022-08-19T21:43:54.891Z,60.85
2022-08-19T21:46:57.609Z,61.56
2022-08-19T21:50:01.643Z,61.48
2022-08-19T21:53:04.388Z,61.61
2022-08-19T21:56:07.657Z,61.52
2022-08-19T21:59:10.400Z,61.59
2022-08-19T22:02:21.960Z,61.61
2022-08-19T22:05:27.119Z,61.93
2022-08-19T22:08:31.293Z,62.01
2022-08-19T22:11:34.582Z,62.46
2022-08-19T22:14:38.220Z,62.44
2022-08-19T22:17:41.946Z,63.03
2022-08-19T22:20:48.074Z,63.27
2022-08-19T22:23:50.774Z,62.95
2022-08-19T22:26:53.449Z,62.91
2022-08-19T22:29:56.164Z,63.03
2022-08-19T22:33:01.257Z,63.43
2022-08-19T22:36:08.337Z,63.83
2022-08-19T22:39:11.119Z,63.41
2022-08-19T22:42:13.955Z,64.12
2022-08-19T22:45:18.157Z,64.39
2022-08-19T22:48:23.286Z,64.19
2022-08-19T22:51:44.761Z,63.77
2022-08-19T22:54:49.637Z,63.87
2022-08-19T22:57:53.375Z,63.63
2022-08-19T23:00:56.276Z,63.85
2022-08-19T23:04:00.465Z,64.24
2022-08-19T23:07:08.267Z,64.61
2022-08-19T23:10:12.242Z,64.92
2022-08-19T23:13:17.222Z,64.70
2022-08-19T23:16:20.646Z,64.87
2022-08-19T23:19:23.532Z,64.88
2022-08-19T23:22:29.338Z,65.58
2022-08-19T23:25:34.170Z,65.36
2022-08-19T23:28:54.710Z,65.48
2022-08-19T23:31:57.421Z,65.94
2022-08-19T23:35:00.291Z,66.77
2022-08-19T23:38:05.811Z,66.96
2022-08-19T23:41:10.240Z,67.63
2022-08-19T23:44:14.510Z,68.08
2022-08-19T23:47:17.898Z,68.35
2022-08-19T23:50:21.900Z,68.83
2022-08-19T23:53:27.093Z,68.82
2022-08-19T23:56:29.801Z,69.01
2022-08-19T23:59:32.585Z,69.37
